Time;durP1;ratioP1;P1;durP2;ratioP2;P2;SDS_P1;SDS_P2;PMS_P1;PMS_P2;Temp;Humidity;BMP_temperature;BMP_pressure;BME280_temperature;BME280_humidity;BME280_pressure;Samples;Min_cycle;Max_cycle;Signal;HPM_P1;HPM_P2
2021/10/23 00:00:56;;;;;;;0.60;0.60;;;7.10;99.90;;;;;;5010308;28;20773;-76
2021/10/23 00:03:22;;;;;;;0.50;0.40;;;7.20;99.90;;;;;;5012068;28;20207;-77
2021/10/23 00:05:49;;;;;;;0.50;0.40;;;7.20;99.90;;;;;;5010947;28;20225;-77
2021/10/23 00:08:16;;;;;;;0.85;0.85;;;7.20;99.90;;;;;;5011360;28;20596;-76
2021/10/23 00:10:43;;;;;;;0.50;0.30;;;7.30;99.90;;;;;;5011703;28;20539;-76
2021/10/23 00:13:11;;;;;;;0.50;0.40;;;7.30;99.90;;;;;;5012484;28;20198;-77
2021/10/23 00:15:38;;;;;;;0.50;0.38;;;7.30;99.90;;;;;;5015137;28;20308;-74
2021/10/23 00:18:04;;;;;;;0.50;0.40;;;7.30;99.90;;;;;;5014900;28;20500;-77
2021/10/23 00:20:31;;;;;;;0.50;0.40;;;7.30;99.90;;;;;;5014630;28;20207;-76
2021/10/23 00:22:58;;;;;;;0.50;0.40;;;7.30;99.90;;;;;;5014923;28;20201;-77
2021/10/23 00:25:25;;;;;;;0.50;0.30;;;7.30;99.90;;;;;;5014428;28;20223;-77
2021/10/23 00:27:54;;;;;;;1.40;1.30;;;7.30;99.90;;;;;;5014841;28;20196;-77
2021/10/23 00:30:23;;;;;;;0.50;0.40;;;7.30;99.90;;;;;;5014390;28;20413;-76
2021/10/23 00:32:50;;;;;;;0.50;0.40;;;7.30;99.90;;;;;;5015009;28;20368;-77
2021/10/23 00:35:17;;;;;;;0.50;0.40;;;7.30;99.90;;;;;;5014417;28;20225;-77
2021/10/23 00:37:43;;;;;;;0.50;0.30;;;7.30;99.90;;;;;;5014878;28;20182;-76
2021/10/23 00:40:11;;;;;;;0.50;0.35;;;7.30;99.90;;;;;;5014184;28;20194;-76
2021/10/23 00:42:38;;;;;;;2.85;1.75;;;7.20;99.90;;;;;;5014294;28;20205;-76
2021/10/23 00:45:06;;;;;;;0.50;0.32;;;7.20;99.90;;;;;;5014171;28;20250;-76
2021/10/23 00:47:34;;;;;;;1.08;1.08;;;7.20;99.90;;;;;;5014608;28;20200;-76
2021/10/23 00:50:01;;;;;;;0.75;0.55;;;7.20;99.90;;;;;;5014211;28;20196;-76
2021/10/23 00:52:28;;;;;;;0.50;0.40;;;7.20;99.90;;;;;;5013785;28;20196;-77
2021/10/23 00:54:55;;;;;;;0.50;0.40;;;7.20;99.90;;;;;;5014294;28;20200;-77
2021/10/23 00:57:22;;;;;;;0.98;0.93;;;7.20;99.90;;;;;;5014579;28;20209;-77
2021/10/23 00:59:48;;;;;;;0.50;0.40;;;7.20;99.90;;;;;;5014397;28;20201;-77
2021/10/23 01:02:15;;;;;;;0.50;0.40;;;7.20;99.90;;;;;;5013575;28;20208;-78
2021/10/23 01:04:44;;;;;;;0.50;0.40;;;7.20;99.90;;;;;;5014252;28;20210;-77
2021/10/23 01:07:11;;;;;;;4.10;2.08;;;7.20;99.90;;;;;;5013864;28;20210;-76
2021/10/23 01:09:39;;;;;;;0.50;0.40;;;7.20;99.90;;;;;;5014009;28;20577;-77
2021/10/23 01:12:07;;;;;;;0.60;0.60;;;7.20;99.90;;;;;;5013838;28;20578;-76
2021/10/23 01:14:34;;;;;;;1.55;1.45;;;7.20;99.90;;;;;;5014313;28;20200;-76
2021/10/23 01:17:01;;;;;;;1.23;1.13;;;7.20;99.90;;;;;;5013577;28;20286;-77
2021/10/23 01:19:28;;;;;;;0.50;0.40;;;7.20;99.90;;;;;;5013901;28;20196;-77
2021/10/23 01:21:56;;;;;;;1.45;1.35;;;7.20;99.90;;;;;;5013320;28;20203;-77
2021/10/23 01:24:24;;;;;;;2.10;1.95;;;7.20;99.90;;;;;;5013114;28;20212;-77
2021/10/23 01:26:51;;;;;;;2.90;2.55;;;7.20;99.90;;;;;;5013433;28;20221;-77
2021/10/23 01:29:20;;;;;;;1.77;1.20;;;7.20;99.90;;;;;;5013989;28;20208;-77
2021/10/23 01:31:47;;;;;;;1.50;1.40;;;7.20;99.90;;;;;;5012946;28;20203;-73
2021/10/23 01:34:16;;;;;;;0.95;0.95;;;7.20;99.90;;;;;;5013515;28;20205;-77
2021/10/23 01:36:44;;;;;;;2.95;2.25;;;7.20;99.90;;;;;;5013020;28;20231;-77
2021/10/23 01:39:12;;;;;;;0.50;0.40;;;7.20;99.90;;;;;;5013873;28;20201;-76
2021/10/23 01:41:40;;;;;;;0.57;0.55;;;7.20;99.90;;;;;;5012761;28;20196;-76
2021/10/23 01:44:08;;;;;;;1.55;0.75;;;7.20;99.90;;;;;;5013164;28;20228;-77
2021/10/23 01:46:35;;;;;;;1.17;1.08;;;7.20;99.90;;;;;;5013438;28;20212;-77
2021/10/23 01:49:02;;;;;;;0.50;0.40;;;7.20;99.90;;;;;;5013594;28;20201;-76
2021/10/23 01:51:29;;;;;;;0.50;0.40;;;7.20;99.90;;;;;;5012807;28;20209;-77
2021/10/23 01:53:56;;;;;;;0.50;0.40;;;7.20;99.90;;;;;;5012674;28;20224;-77
2021/10/23 01:56:24;;;;;;;0.70;0.70;;;7.20;99.90;;;;;;5012936;28;20283;-77
2021/10/23 01:58:51;;;;;;;0.50;0.40;;;7.10;99.90;;;;;;5013407;28;20686;-77
2021/10/23 02:01:18;;;;;;;0.50;0.40;;;7.20;99.90;;;;;;5012825;28;20193;-78
2021/10/23 02:03:45;;;;;;;0.50;0.40;;;7.10;99.90;;;;;;5012900;28;20204;-77
2021/10/23 02:06:12;;;;;;;0.50;0.40;;;7.00;99.90;;;;;;5012452;28;20741;-79
2021/10/23 02:08:38;;;;;;;0.50;0.50;;;7.00;99.90;;;;;;5012939;28;20193;-77
2021/10/23 02:11:05;;;;;;;2.42;1.17;;;7.00;99.90;;;;;;5012829;28;20612;-78
2021/10/23 02:13:34;;;;;;;0.60;0.40;;;6.90;99.90;;;;;;5012782;28;20587;-78
2021/10/23 02:16:01;;;;;;;0.50;0.40;;;6.90;99.90;;;;;;5012694;28;20216;-78
2021/10/23 02:18:28;;;;;;;4.05;1.88;;;6.90;99.90;;;;;;5013203;28;20202;-77
2021/10/23 02:20:55;;;;;;;0.50;0.40;;;6.90;99.90;;;;;;5012261;28;20201;-78
2021/10/23 02:23:22;;;;;;;1.77;1.67;;;6.90;99.90;;;;;;5012641;28;20193;-78
2021/10/23 02:25:49;;;;;;;0.68;0.68;;;6.80;99.90;;;;;;5012472;28;20227;-78
2021/10/23 02:28:17;;;;;;;0.50;0.35;;;6.80;99.90;;;;;;5012668;28;20207;-78
2021/10/23 02:30:45;;;;;;;0.50;0.40;;;6.70;99.90;;;;;;5012836;28;20198;-76
2021/10/23 02:33:12;;;;;;;9.38;3.10;;;6.80;99.90;;;;;;5012603;28;20208;-77
2021/10/23 02:35:39;;;;;;;0.77;0.77;;;6.80;99.90;;;;;;5067925;23;20227;-78
2021/10/23 02:38:06;;;;;;;0.50;0.50;;;6.80;99.90;;;;;;5020986;28;20216;-81
2021/10/23 02:40:32;;;;;;;1.05;0.95;;;6.80;99.90;;;;;;5030413;28;20188;-81
2021/10/23 02:42:59;;;;;;;0.50;0.30;;;6.80;99.90;;;;;;5036323;28;20192;-81
2021/10/23 02:45:26;;;;;;;0.60;0.60;;;6.90;99.90;;;;;;5035920;28;20242;-81
2021/10/23 02:47:54;;;;;;;0.57;0.57;;;6.90;99.90;;;;;;5016817;28;20192;-81
2021/10/23 02:50:21;;;;;;;0.50;0.30;;;6.90;99.90;;;;;;5015677;28;20207;-82
2021/10/23 02:52:48;;;;;;;1.48;1.38;;;6.90;99.90;;;;;;5015433;28;20192;-81
2021/10/23 02:55:15;;;;;;;0.50;0.40;;;6.90;99.90;;;;;;5016102;28;20655;-81
2021/10/23 02:57:42;;;;;;;0.50;0.30;;;6.80;99.90;;;;;;5016102;28;20239;-82
2021/10/23 03:00:10;;;;;;;0.50;0.40;;;6.80;99.90;;;;;;5016189;28;20465;-81
2021/10/23 03:02:37;;;;;;;0.50;0.40;;;6.80;99.90;;;;;;5015844;28;20201;-82
2021/10/23 03:05:06;;;;;;;0.50;0.50;;;6.80;99.90;;;;;;5016556;28;20223;-82
2021/10/23 03:07:33;;;;;;;0.50;0.40;;;6.80;99.90;;;;;;5016285;28;20224;-78
2021/10/23 03:10:00;;;;;;;0.50;0.50;;;6.80;99.90;;;;;;5016184;28;20203;-80
2021/10/23 03:12:28;;;;;;;0.50;0.50;;;6.70;99.90;;;;;;5016502;28;20204;-81
2021/10/23 03:14:55;;;;;;;0.50;0.40;;;6.60;99.90;;;;;;5015113;28;20204;-81
2021/10/23 03:17:22;;;;;;;0.50;0.30;;;6.60;99.90;;;;;;5016358;28;20223;-80
2021/10/23 03:19:48;;;;;;;1.45;1.35;;;6.60;99.90;;;;;;5015858;28;20196;-81
2021/10/23 03:22:17;;;;;;;0.50;0.30;;;6.60;99.90;;;;;;5015905;28;20203;-81
2021/10/23 03:24:43;;;;;;;0.50;0.40;;;6.60;99.90;;;;;;5015583;28;20205;-80
2021/10/23 03:27:10;;;;;;;0.50;0.40;;;6.60;99.90;;;;;;5023393;28;20220;-80
2021/10/23 03:29:37;;;;;;;0.50;0.40;;;6.70;99.90;;;;;;5015879;28;20215;-80
2021/10/23 03:32:04;;;;;;;0.60;0.60;;;6.70;99.90;;;;;;5015733;28;20201;-81
2021/10/23 03:34:31;;;;;;;8.07;7.38;;;6.70;99.90;;;;;;5015823;28;20200;-81
2021/10/23 03:36:58;;;;;;;0.55;0.55;;;6.70;99.90;;;;;;5015486;28;20232;-81
2021/10/23 03:39:26;;;;;;;0.50;0.45;;;6.80;99.90;;;;;;5015590;28;20193;-81
2021/10/23 03:41:52;;;;;;;2.40;2.25;;;6.80;99.90;;;;;;5015267;28;20196;-82
2021/10/23 03:44:19;;;;;;;1.65;1.55;;;6.80;99.90;;;;;;5015530;28;20200;-82
2021/10/23 03:46:46;;;;;;;4.10;1.85;;;6.80;99.90;;;;;;5016585;28;20226;-80
2021/10/23 03:49:13;;;;;;;0.80;0.80;;;6.80;99.90;;;;;;5018482;28;20669;-80
2021/10/23 03:51:39;;;;;;;3.42;1.67;;;6.80;99.90;;;;;;5019019;28;20200;-76
2021/10/23 03:54:06;;;;;;;3.72;3.53;;;6.80;99.90;;;;;;5019398;28;20204;-80
2021/10/23 03:56:34;;;;;;;1.23;1.13;;;6.80;99.90;;;;;;5019396;28;20235;-79
2021/10/23 03:59:01;;;;;;;13.88;2.92;;;6.80;99.90;;;;;;5021981;28;20205;-80
2021/10/23 04:01:28;;;;;;;2.67;2.47;;;6.90;99.90;;;;;;5019694;28;20674;-79
2021/10/23 04:03:55;;;;;;;0.80;0.80;;;6.80;99.90;;;;;;5020519;28;20368;-80
2021/10/23 04:06:21;;;;;;;1.42;1.33;;;6.80;99.90;;;;;;5019494;28;20230;-80
2021/10/23 04:08:48;;;;;;;1.25;1.10;;;6.80;99.90;;;;;;5019268;28;20205;-80
2021/10/23 04:11:15;;;;;;;1.70;1.60;;;6.80;99.90;;;;;;5018778;28;20715;-83
2021/10/23 04:13:43;;;;;;;1.63;0.68;;;6.80;99.90;;;;;;5019098;28;20204;-79
2021/10/23 04:16:10;;;;;;;2.55;2.35;;;6.80;99.90;;;;;;5018582;28;20223;-81
2021/10/23 04:18:36;;;;;;;3.55;3.35;;;6.80;99.90;;;;;;5018633;28;20200;-80
2021/10/23 04:21:03;;;;;;;12.07;3.40;;;6.80;99.90;;;;;;5018952;28;20196;-81
2021/10/23 04:23:30;;;;;;;1.63;1.52;;;6.80;99.90;;;;;;5018199;28;20200;-80
2021/10/23 04:25:56;;;;;;;0.55;0.52;;;6.80;99.90;;;;;;5018232;28;20227;-82
2021/10/23 04:28:23;;;;;;;13.85;3.40;;;6.70;99.90;;;;;;5019098;28;20203;-81
2021/10/23 04:30:51;;;;;;;1.75;1.20;;;6.80;99.90;;;;;;5018538;28;20196;-81
2021/10/23 04:33:18;;;;;;;4.10;1.85;;;6.80;99.90;;;;;;5018850;28;20196;-83
2021/10/23 04:35:45;;;;;;;10.57;5.28;;;6.80;99.90;;;;;;5018607;28;20594;-80
2021/10/23 04:38:12;;;;;;;3.00;2.80;;;6.90;99.90;;;;;;5019460;28;20181;-81
2021/10/23 04:40:39;;;;;;;3.80;3.55;;;6.90;99.90;;;;;;5018634;28;20219;-78
2021/10/23 04:43:05;;;;;;;1.15;1.15;;;6.90;99.90;;;;;;5018970;28;20204;-81
2021/10/23 04:45:32;;;;;;;2.15;1.77;;;7.00;99.90;;;;;;5017915;28;20224;-81
2021/10/23 04:48:00;;;;;;;2.38;2.28;;;7.00;99.90;;;;;;5017933;28;20203;-81
2021/10/23 04:50:27;;;;;;;1.48;1.38;;;7.00;99.90;;;;;;5018624;28;20200;-83
2021/10/23 04:52:54;;;;;;;1.95;1.27;;;7.10;99.90;;;;;;5017404;28;20215;-81
2021/10/23 04:55:21;;;;;;;8.32;4.40;;;7.10;99.90;;;;;;5018108;28;20200;-81
2021/10/23 04:57:47;;;;;;;2.33;2.20;;;7.20;99.90;;;;;;5017974;28;20217;-81
2021/10/23 05:00:14;;;;;;;1.73;1.55;;;7.20;99.90;;;;;;5016956;28;20197;-81
2021/10/23 05:02:41;;;;;;;1.33;1.23;;;7.20;99.90;;;;;;5018105;28;20200;-81
2021/10/23 05:05:09;;;;;;;5.32;1.35;;;7.20;99.90;;;;;;5017793;28;20280;-81
2021/10/23 05:07:37;;;;;;;1.33;1.27;;;7.20;99.90;;;;;;5017646;28;20220;-81
2021/10/23 05:10:04;;;;;;;0.50;0.38;;;7.20;99.90;;;;;;5018194;28;20200;-81
2021/10/23 05:12:31;;;;;;;3.85;3.55;;;7.20;99.90;;;;;;5017583;28;20204;-81
2021/10/23 05:14:58;;;;;;;9.43;8.65;;;7.30;99.90;;;;;;5018135;28;20198;-81
2021/10/23 05:17:25;;;;;;;0.50;0.50;;;7.20;99.90;;;;;;5017045;28;20220;-81
2021/10/23 05:19:52;;;;;;;0.57;0.57;;;7.20;99.90;;;;;;5017918;28;20205;-81
2021/10/23 05:22:20;;;;;;;2.35;1.70;;;7.30;99.90;;;;;;5017457;28;20590;-81
2021/10/23 05:24:47;;;;;;;13.80;4.03;;;7.30;99.90;;;;;;5017202;28;20204;-79
2021/10/23 05:27:14;;;;;;;5.63;5.40;;;7.30;99.90;;;;;;5017728;28;20267;-82
2021/10/23 05:29:41;;;;;;;0.68;0.68;;;7.20;99.90;;;;;;5018123;28;20197;-81
2021/10/23 05:32:08;;;;;;;10.90;4.25;;;7.20;99.90;;;;;;5018914;28;20206;-83
2021/10/23 05:34:35;;;;;;;5.82;2.88;;;7.20;99.90;;;;;;5017484;28;20196;-82
2021/10/23 05:37:01;;;;;;;0.50;0.40;;;7.20;99.90;;;;;;5017731;28;20228;-81
2021/10/23 05:39:30;;;;;;;0.70;0.68;;;7.20;99.90;;;;;;5016907;28;20203;-81
2021/10/23 05:41:56;;;;;;;4.82;2.78;;;7.20;99.90;;;;;;5016647;28;20203;-82
2021/10/23 05:44:23;;;;;;;2.88;2.70;;;7.20;99.90;;;;;;5016717;28;20212;-81
2021/10/23 05:46:50;;;;;;;2.70;2.58;;;7.20;99.90;;;;;;5017013;28;20227;-81
2021/10/23 05:49:17;;;;;;;4.90;4.53;;;7.30;99.90;;;;;;5017304;28;20205;-81
2021/10/23 05:51:44;;;;;;;8.20;6.13;;;7.30;99.90;;;;;;5017117;28;20196;-81
2021/10/23 05:54:11;;;;;;;3.53;3.20;;;7.30;99.90;;;;;;5016517;28;20669;-82
2021/10/23 05:56:39;;;;;;;3.88;1.95;;;7.30;99.90;;;;;;5016760;28;20585;-81
2021/10/23 05:59:11;;;;;;;1.50;1.40;;;7.40;99.90;;;;;;5017145;28;20227;-83
2021/10/23 06:01:38;;;;;;;1.58;1.48;;;7.40;99.90;;;;;;5016842;28;20189;-81
2021/10/23 06:04:05;;;;;;;0.50;0.50;;;7.50;99.90;;;;;;5017232;28;20260;-81
2021/10/23 06:06:32;;;;;;;3.00;2.90;;;7.50;99.90;;;;;;5016940;28;20227;-79
2021/10/23 06:09:00;;;;;;;4.00;3.70;;;7.50;99.90;;;;;;5016373;28;20205;-82
2021/10/23 06:11:27;;;;;;;6.95;3.53;;;7.60;99.90;;;;;;5017590;28;20566;-81
2021/10/23 06:13:56;;;;;;;16.52;4.90;;;7.60;99.90;;;;;;5017220;28;20206;-81
2021/10/23 06:16:23;;;;;;;8.20;7.07;;;7.50;99.90;;;;;;5016833;28;20249;-81
2021/10/23 06:18:51;;;;;;;3.78;3.10;;;7.50;99.90;;;;;;5017348;28;20289;-83
2021/10/23 06:21:18;;;;;;;0.77;0.77;;;7.50;99.90;;;;;;5016798;28;20204;-82
2021/10/23 06:23:44;;;;;;;5.28;3.50;;;7.50;99.90;;;;;;5017519;28;20200;-79
2021/10/23 06:26:11;;;;;;;7.82;7.20;;;7.50;99.90;;;;;;5017097;28;20216;-82
2021/10/23 06:28:38;;;;;;;1.85;1.85;;;7.60;99.90;;;;;;5017297;28;20362;-81
2021/10/23 06:31:08;;;;;;;7.07;2.63;;;7.60;99.90;;;;;;5017351;28;20197;-82
2021/10/23 06:33:35;;;;;;;0.57;0.57;;;7.60;99.90;;;;;;5017672;28;20199;-82
2021/10/23 06:36:02;;;;;;;1.67;1.58;;;7.70;99.90;;;;;;5017411;28;20221;-82
2021/10/23 06:38:29;;;;;;;3.42;2.90;;;7.70;99.90;;;;;;5017830;28;20201;-82
2021/10/23 06:40:56;;;;;;;3.88;3.47;;;7.70;99.90;;;;;;5016854;28;20202;-82
2021/10/23 06:43:24;;;;;;;3.10;2.75;;;7.70;99.90;;;;;;5016418;28;20249;-82
2021/10/23 06:45:51;;;;;;;1.23;0.95;;;7.70;99.90;;;;;;5017444;28;20221;-83
2021/10/23 06:48:19;;;;;;;0.40;0.30;;;7.70;99.90;;;;;;5017619;28;20192;-80
2021/10/23 06:50:46;;;;;;;2.70;1.75;;;7.70;99.90;;;;;;5016996;28;20590;-82
2021/10/23 06:53:12;;;;;;;3.08;1.25;;;7.70;99.90;;;;;;5016872;28;20197;-83
2021/10/23 06:55:39;;;;;;;5.82;5.55;;;7.80;99.90;;;;;;5017355;28;20196;-81
2021/10/23 06:58:06;;;;;;;0.90;0.90;;;7.80;99.90;;;;;;5017258;28;20200;-83
2021/10/23 07:00:33;;;;;;;2.08;1.98;;;7.90;99.90;;;;;;5017337;28;20219;-84
2021/10/23 07:02:59;;;;;;;0.80;0.80;;;7.90;99.90;;;;;;5017000;28;20196;-83
2021/10/23 07:05:30;;;;;;;1.35;1.30;;;7.90;99.90;;;;;;5016962;28;20218;-82
2021/10/23 07:07:57;;;;;;;0.50;0.40;;;7.90;99.90;;;;;;5017021;28;20216;-83
2021/10/23 07:10:24;;;;;;;1.48;1.35;;;7.90;99.90;;;;;;5017930;28;20197;-83
2021/10/23 07:12:51;;;;;;;1.70;1.60;;;7.90;99.90;;;;;;5017608;28;20691;-81
2021/10/23 07:15:19;;;;;;;1.60;1.60;;;7.90;99.90;;;;;;5016883;28;20614;-82
2021/10/23 07:17:46;;;;;;;2.22;2.03;;;7.90;99.90;;;;;;5017136;28;20214;-82
2021/10/23 07:20:13;;;;;;;7.82;3.72;;;7.80;99.90;;;;;;5016518;28;20205;-82
2021/10/23 07:22:42;;;;;;;14.43;5.70;;;7.90;99.90;;;;;;5016096;28;20201;-82
2021/10/23 07:25:09;;;;;;;3.05;2.88;;;8.00;99.90;;;;;;5017636;28;20199;-83
2021/10/23 07:27:37;;;;;;;8.23;5.72;;;8.10;99.90;;;;;;5017061;28;20227;-83
2021/10/23 07:30:08;;;;;;;30.17;5.90;;;8.10;99.90;;;;;;5017413;28;20201;-80
2021/10/23 07:32:35;;;;;;;2.80;2.08;;;8.10;99.90;;;;;;5017424;28;20205;-82
2021/10/23 07:35:02;;;;;;;2.65;1.77;;;8.00;99.90;;;;;;5020029;28;20232;-82
2021/10/23 07:37:29;;;;;;;4.22;3.85;;;7.90;99.90;;;;;;5021048;28;20223;-82
2021/10/23 07:39:57;;;;;;;2.38;2.28;;;7.80;99.90;;;;;;5016657;28;20207;-82
2021/10/23 07:42:24;;;;;;;0.70;0.70;;;7.80;99.90;;;;;;5015481;28;20197;-82
2021/10/23 07:44:53;;;;;;;0.68;0.68;;;7.90;99.90;;;;;;5016409;28;20208;-82
2021/10/23 07:47:20;;;;;;;1.75;1.58;;;8.00;99.90;;;;;;5016924;28;20217;-82
2021/10/23 07:49:47;;;;;;;3.97;3.78;;;8.20;99.90;;;;;;5016777;28;20263;-82
2021/10/23 07:52:13;;;;;;;1.00;0.70;;;8.00;99.90;;;;;;5016687;28;20231;-82
2021/10/23 07:54:41;;;;;;;11.20;5.75;;;7.90;99.90;;;;;;5016021;28;20204;-81
2021/10/23 07:57:10;;;;;;;4.95;4.45;;;7.90;99.90;;;;;;5016189;28;20222;-84
2021/10/23 07:59:36;;;;;;;8.43;4.82;;;7.80;99.90;;;;;;5016198;28;20196;-83
2021/10/23 08:02:04;;;;;;;4.95;4.53;;;7.90;99.90;;;;;;5016319;28;20679;-81
2021/10/23 08:04:31;;;;;;;2.95;2.22;;;8.10;99.90;;;;;;5015857;28;20193;-83
2021/10/23 08:07:00;;;;;;;15.05;8.15;;;9.00;99.90;;;;;;5015889;28;20683;-82
2021/10/23 08:09:26;;;;;;;0.50;0.40;;;9.10;99.90;;;;;;5015599;28;20197;-83
2021/10/23 08:11:54;;;;;;;3.42;2.58;;;9.00;99.90;;;;;;5015365;28;20214;-82
2021/10/23 08:14:22;;;;;;;5.88;2.55;;;9.10;99.90;;;;;;5016389;28;20208;-81
2021/10/23 08:16:49;;;;;;;2.42;2.25;;;9.30;99.90;;;;;;5015850;28;20258;-82
2021/10/23 08:19:16;;;;;;;4.03;3.72;;;9.80;99.90;;;;;;5016234;28;20198;-82
2021/10/23 08:21:42;;;;;;;7.82;3.20;;;9.80;99.90;;;;;;5015169;28;20197;-78
2021/10/23 08:24:10;;;;;;;1.55;1.45;;;10.00;99.90;;;;;;5016174;28;20224;-82
2021/10/23 08:26:37;;;;;;;5.13;1.88;;;10.30;99.90;;;;;;5015756;28;20223;-81
2021/10/23 08:29:04;;;;;;;1.40;1.38;;;10.40;99.90;;;;;;5015877;28;20201;-82
2021/10/23 08:31:32;;;;;;;6.35;3.95;;;10.50;99.90;;;;;;5015759;28;20203;-81
2021/10/23 08:33:59;;;;;;;7.70;3.00;;;11.20;99.90;;;;;;5016539;28;20580;-82
2021/10/23 08:36:26;;;;;;;0.88;0.88;;;12.50;99.90;;;;;;5021201;28;20308;-83
2021/10/23 08:38:54;;;;;;;1.37;1.07;;;13.70;99.90;;;;;;5019336;28;20566;-82
2021/10/23 08:41:21;;;;;;;5.23;4.77;;;15.10;99.90;;;;;;5019399;28;20439;-82
2021/10/23 08:43:48;;;;;;;2.53;2.33;;;15.40;99.90;;;;;;5019364;28;20458;-81
2021/10/23 08:46:20;;;;;;;1.17;0.87;;;15.60;99.90;;;;;;5019441;28;20460;-82
2021/10/23 08:48:50;;;;;;;2.03;1.83;;;15.70;99.90;;;;;;5019595;28;20524;-80
2021/10/23 08:51:17;;;;;;;3.00;1.13;;;15.60;99.90;;;;;;5019012;28;20458;-82
2021/10/23 08:53:44;;;;;;;0.50;0.30;;;15.00;99.90;;;;;;5018908;28;20937;-83
2021/10/23 08:56:11;;;;;;;4.20;2.70;;;16.10;99.90;;;;;;5019452;28;20470;-82
2021/10/23 08:58:39;;;;;;;0.93;0.90;;;17.00;99.90;;;;;;5018287;28;20447;-79
2021/10/23 09:01:09;;;;;;;0.60;0.60;;;16.90;99.90;;;;;;5019014;28;20446;-82
2021/10/23 09:03:36;;;;;;;0.60;0.50;;;16.50;99.90;;;;;;5019646;28;20458;-82
2021/10/23 09:06:05;;;;;;;2.80;2.50;;;17.10;99.90;;;;;;5019353;28;20468;-82
2021/10/23 09:08:31;;;;;;;0.50;0.30;;;17.90;99.90;;;;;;5018801;28;20473;-81
2021/10/23 09:10:59;;;;;;;1.00;0.97;;;18.50;99.90;;;;;;5018233;28;20456;-83
2021/10/23 09:13:28;;;;;;;8.13;3.30;;;19.20;99.90;;;;;;5019528;28;20530;-82
2021/10/23 09:15:55;;;;;;;0.93;0.90;;;18.00;99.90;;;;;;5018620;28;20824;-81
2021/10/23 09:18:41;;;;;;;0.50;0.40;;;16.90;99.90;;;;;;5018961;28;20438;-82
2021/10/23 09:21:18;;;;;;;0.60;0.50;;;16.50;99.90;;;;;;5018402;28;20485;-81
2021/10/23 09:23:45;;;;;;;0.50;0.33;;;16.00;99.90;;;;;;5019075;28;20450;-81
2021/10/23 09:26:29;;;;;;;0.50;0.50;;;15.60;99.90;;;;;;5018616;28;20465;-83
2021/10/23 09:29:15;;;;;;;2.50;2.30;;;15.50;99.90;;;;;;5019163;28;20442;-81
2021/10/23 09:31:45;;;;;;;5.50;4.00;;;15.50;99.90;;;;;;5018768;28;20937;-79
2021/10/23 09:34:13;;;;;;;4.57;2.33;;;14.80;99.90;;;;;;5019137;28;20451;-81
2021/10/23 09:36:50;;;;;;;3.80;1.73;;;13.70;99.90;;;;;;5017827;28;20468;-81
2021/10/23 09:39:27;;;;;;;0.97;0.97;;;13.10;99.90;;;;;;5018294;28;20925;-83
2021/10/23 09:42:14;;;;;;;1.33;1.33;;;12.60;99.90;;;;;;5018624;28;20431;-80
2021/10/23 09:45:00;;;;;;;3.15;1.95;;;12.50;99.90;;;;;;5019090;28;20416;-81
2021/10/23 09:47:29;;;;;;;2.20;2.00;;;12.40;99.90;;;;;;5020771;28;20316;-81
2021/10/23 09:50:11;;;;;;;2.83;2.60;;;12.50;99.90;;;;;;5018267;28;20454;-82
2021/10/23 09:52:56;;;;;;;12.33;7.00;;;12.50;99.90;;;;;;5017611;28;20542;-81
2021/10/23 09:55:23;;;;;;;0.50;0.40;;;12.20;99.90;;;;;;5018077;28;20947;-83
2021/10/23 09:58:14;;;;;;;0.70;0.70;;;12.20;99.90;;;;;;5017426;28;20464;-81
2021/10/23 10:00:43;;;;;;;0.50;0.40;;;12.30;99.90;;;;;;5017995;28;20825;-79
2021/10/23 10:03:11;;;;;;;0.77;0.57;;;12.50;99.90;;;;;;5017771;28;20501;-81
2021/10/23 10:05:38;;;;;;;2.80;0.77;;;12.70;99.90;;;;;;5017846;28;20303;-82
2021/10/23 10:08:10;;;;;;;0.50;0.40;;;12.80;99.90;;;;;;5018129;28;21001;-81
2021/10/23 10:10:41;;;;;;;12.80;2.50;;;12.90;99.90;;;;;;5018240;28;20453;-81
2021/10/23 10:13:10;;;;;;;1.40;1.40;;;12.60;99.90;;;;;;5018456;28;20906;-81
2021/10/23 10:15:38;;;;;;;0.50;0.40;;;12.50;99.90;;;;;;5017677;28;20465;-80
2021/10/23 10:18:06;;;;;;;0.90;0.77;;;12.70;99.90;;;;;;5017949;28;20446;-82
2021/10/23 10:20:37;;;;;;;0.50;0.30;;;12.70;99.90;;;;;;5017548;28;20439;-83
2021/10/23 10:23:06;;;;;;;0.50;0.33;;;12.70;99.90;;;;;;5017563;28;20447;-83
2021/10/23 10:25:34;;;;;;;3.72;1.25;;;12.70;99.90;;;;;;5016597;28;20451;-80
2021/10/23 10:28:16;;;;;;;0.50;0.40;;;12.90;99.90;;;;;;5018173;28;20212;-81
2021/10/23 10:30:46;;;;;;;0.50;0.40;;;12.80;99.90;;;;;;5017028;28;20555;-81
2021/10/23 10:33:26;;;;;;;0.60;0.40;;;12.80;99.90;;;;;;5017904;28;20451;-82
2021/10/23 10:36:15;;;;;;;4.63;1.70;;;13.10;99.90;;;;;;5017237;28;20455;-80
2021/10/23 10:39:05;;;;;;;2.77;2.50;;;13.30;99.90;;;;;;5016079;28;20538;-81
2021/10/23 10:44:20;;;;;;;1.60;1.43;;;13.20;99.90;;;;;;5016469;28;20482;-80
2021/10/23 10:47:09;;;;;;;1.47;1.00;;;13.20;99.90;;;;;;5016561;28;20467;-80
2021/10/23 10:49:53;;;;;;;0.50;0.40;;;13.10;99.90;;;;;;5016310;28;20451;-79
2021/10/23 10:52:54;;;;;;;20.33;4.70;;;13.00;99.90;;;;;;5015191;28;20483;-80
2021/10/23 10:55:22;;;;;;;0.50;0.30;;;13.00;99.90;;;;;;5016837;28;20501;-79
2021/10/23 10:57:58;;;;;;;0.50;0.40;;;13.10;99.90;;;;;;5015378;28;20513;-80
2021/10/23 11:01:13;;;;;;;0.60;0.60;;;13.40;99.90;;;;;;5017178;28;20192;-80
2021/10/23 11:04:02;;;;;;;0.50;0.43;;;13.60;99.90;;;;;;4955264;29;20417;-81
2021/10/23 11:07:02;;;;;;;0.50;0.37;;;13.50;99.90;;;;;;4956393;29;20466;-80
2021/10/23 11:09:38;;;;;;;0.70;0.70;;;13.50;99.90;;;;;;4955864;29;20438;-79
2021/10/23 11:12:19;;;;;;;0.50;0.30;;;13.80;99.90;;;;;;4955436;29;20442;-80
2021/10/23 11:14:47;;;;;;;0.50;0.30;;;14.10;99.90;;;;;;4955010;28;20441;-81
2021/10/23 11:17:21;;;;;;;1.53;1.27;;;14.20;99.90;;;;;;4955095;29;20458;-78
2021/10/23 11:19:51;;;;;;;0.50;0.40;;;14.30;99.90;;;;;;4954829;28;20532;-80
2021/10/23 11:22:19;;;;;;;4.00;3.80;;;14.20;99.90;;;;;;4956002;29;20601;-78
2021/10/23 11:24:48;;;;;;;33.23;10.67;;;14.10;99.90;;;;;;4955987;29;20591;-80
2021/10/23 11:27:26;;;;;;;0.50;0.30;;;14.30;99.90;;;;;;4955339;28;20468;-81
2021/10/23 11:30:25;;;;;;;0.60;0.60;;;14.40;99.90;;;;;;4954562;29;20936;-80
2021/10/23 11:32:56;;;;;;;5.10;2.40;;;14.60;99.90;;;;;;4955128;29;20454;-81
2021/10/23 11:35:35;;;;;;;0.50;0.50;;;14.70;99.90;;;;;;4956272;29;20452;-80
2021/10/23 11:38:07;;;;;;;5.53;2.87;;;14.90;99.90;;;;;;4990689;28;20432;-81
2021/10/23 11:40:36;;;;;;;1.40;1.30;;;14.90;99.90;;;;;;5015595;28;20443;-81
2021/10/23 11:43:04;;;;;;;0.50;0.30;;;14.90;99.90;;;;;;5016943;28;20439;-81
2021/10/23 11:45:33;;;;;;;0.70;0.57;;;14.80;99.90;;;;;;5016547;28;20806;-82
2021/10/23 11:48:02;;;;;;;0.50;0.30;;;14.70;99.90;;;;;;5016822;28;20475;-81
2021/10/23 11:50:31;;;;;;;0.50;0.40;;;14.90;99.90;;;;;;5016006;28;20456;-81
2021/10/23 11:53:01;;;;;;;0.50;0.37;;;14.90;99.90;;;;;;5016233;28;20471;-81
2021/10/23 11:55:33;;;;;;;0.50;0.40;;;14.70;99.90;;;;;;5016684;28;20443;-82
2021/10/23 11:58:01;;;;;;;0.50;0.40;;;14.70;99.90;;;;;;5017118;28;20452;-81
2021/10/23 12:00:33;;;;;;;3.37;2.33;;;14.60;99.90;;;;;;5016133;28;20451;-80
2021/10/23 12:03:03;;;;;;;2.17;2.00;;;14.10;99.90;;;;;;5015282;28;20538;-81
2021/10/23 12:05:38;;;;;;;1.40;1.40;;;13.40;99.90;;;;;;5015221;28;20502;-78
2021/10/23 12:08:22;;;;;;;4.00;1.83;;;13.10;99.90;;;;;;5015291;28;20485;-81
2021/10/23 12:11:03;;;;;;;1.47;1.13;;;13.10;99.90;;;;;;5019098;28;20447;-80
2021/10/23 12:13:42;;;;;;;1.33;1.23;;;13.20;99.90;;;;;;5020100;28;20550;-82
2021/10/23 12:16:11;;;;;;;3.07;2.87;;;13.10;99.90;;;;;;5020451;28;20473;-81
2021/10/23 12:18:38;;;;;;;5.53;3.27;;;13.20;99.90;;;;;;5019274;28;20439;-80
2021/10/23 12:21:16;;;;;;;0.50;0.40;;;13.40;99.90;;;;;;5019448;28;20443;-81
2021/10/23 12:23:48;;;;;;;0.50;0.30;;;13.70;99.90;;;;;;5019898;28;20544;-81
2021/10/23 12:26:16;;;;;;;0.60;0.40;;;14.00;99.90;;;;;;5019636;28;20837;-82
2021/10/23 12:29:00;;;;;;;2.47;1.70;;;14.20;99.90;;;;;;5019064;28;20475;-82
2021/10/23 12:31:29;;;;;;;1.53;0.50;;;14.30;99.90;;;;;;5019265;28;20445;-82
2021/10/23 12:34:03;;;;;;;0.80;0.80;;;14.40;99.90;;;;;;5019000;28;20840;-82
2021/10/23 12:36:31;;;;;;;5.53;4.47;;;14.00;99.90;;;;;;5019383;28;20473;-81
2021/10/23 12:39:19;;;;;;;0.50;0.40;;;13.70;99.90;;;;;;5019491;28;20444;-81
2021/10/23 12:41:46;;;;;;;0.50;0.40;;;13.50;99.90;;;;;;5019416;28;20415;-82
2021/10/23 12:44:14;;;;;;;1.63;0.93;;;13.60;99.90;;;;;;5019035;28;20449;-81
2021/10/23 12:46:42;;;;;;;0.50;0.30;;;13.70;99.90;;;;;;5018689;28;20460;-80
2021/10/23 12:49:09;;;;;;;0.50;0.40;;;14.00;99.90;;;;;;5017725;28;21015;-80
2021/10/23 12:51:36;;;;;;;3.87;3.43;;;14.30;99.90;;;;;;5018066;28;20439;-81
2021/10/23 12:54:04;;;;;;;0.60;0.60;;;14.50;99.90;;;;;;5017550;28;20443;-79
2021/10/23 12:56:31;;;;;;;0.70;0.70;;;14.30;99.90;;;;;;5017619;28;20472;-82
2021/10/23 12:58:58;;;;;;;0.50;0.40;;;14.30;99.90;;;;;;5017436;28;20809;-79
2021/10/23 13:01:25;;;;;;;3.40;1.90;;;14.10;99.90;;;;;;5017662;28;20435;-80
2021/10/23 13:03:54;;;;;;;0.50;0.37;;;14.00;99.90;;;;;;5018178;28;20521;-80
2021/10/23 13:06:21;;;;;;;0.60;0.40;;;13.70;99.90;;;;;;5016833;28;20474;-80